Lancaster, CA (93586)

1:02 AM PDT on March 30, 2017 (GMT -0700)
Downtown Lancaster | | Change Station
Active Advisory: High Wind Watch

Elev 2375 ft 34.69 °N, 118.14 °W | Updated 18 seconds ago

Clear
Clear
62.1 °F
Feels Like 62.1 °F
N
0.0
Wind Variable Wind from West

Today
High -- | Low -- °F
--% Chance of Precip.
Yesterday
High -- | Low -- °F
Precip. -- in
Pressure 30.00 in
Visibility 10.0 miles
Clouds Clear
Dew Point 39 °F
Humidity 42%
Rainfall 0.00 in
Snow Depth Not available.
6:41 AM 7:12 PM
Waxing Crescent, 7% visible
METAR KWJF 300756Z AUTO 26018KT 10SM CLR 17/03 A3004 RMK AO2 PK WND 27029/0719 SLP159 T01670033 402670000
Pressure 30.00 in
Visibility 10.0 miles
Clouds Clear
Dew Point 39 °F
Humidity 42%
Rainfall 0.00 in
Snow Depth Not available.
6:41 AM 7:12 PM
Waxing Crescent, 7% visible
METAR KWJF 300756Z AUTO 26018KT 10SM CLR 17/03 A3004 RMK AO2 PK WND 27029/0719 SLP159 T01670033 402670000

Get Your Daily Forecast Email!

Thanks for signing up!

Be on the lookout for a verification email in your inbox.

You'll start receiving severe weather alerts in your inbox..

×

10-Day Weather Forecast

Almanac

Astronomy

Mar. 30, 2017 Rise Set
Actual Time
Civil Twilight
Nautical Twilight
Astronomical Twilight
Moon
Length of Visible Light
Length of Day
Tomorrow will be .
, % of the Moon is Illuminated

Today's Extremes

State Highs State Lows

Community

WunderPhotos

Upload Photos

1,962,540 photos uploaded!

WunderBlog® & News

Nearby

Air Quality

  Air Quality AQ Index Pollutant
Not available.

Snow Depth

Station Depth Elevation

Earthquake Activity

City Distance Mag. Time & Date
Minimum magnitude displayed is 2.5.

Earthquake Activity

City Distance Mag. Time & Date
Minimum magnitude displayed is 2.5.

Coastal Water Temperatures

Place Temperature

Stations

Nearby Weather Stations

Station Location Temp. Windchill Dew Point Humidity Wind Precip. Elev Updated Type
                   

Watches & Warnings

High Wind Watch
Issued: 10:55 PM PDT Mar. 29, 2017 – National Weather Service

... High wind watch remains in effect from Thursday afternoon
through late Thursday night...

* winds... west to northwest winds 25 to 40 mph with gusts to 60
mph are expected by Thursday afternoon and continuing into
Thursday night. Strongest winds will be on the west side of
the valley and in the foothills.

* Impacts... winds this strong may down trees and power lines,
causing property damage or power outages. Cross winds can make
driving difficult, especially for drivers of high profile
vehicles and vehicles towing trailers. This includes highways
14 and 138, especially near the foothills.

Precautionary/preparedness actions...

A high wind watch means that conditions are favorable for
potentially damaging winds of 58 mph or greater. Be prepared to
secure all loose outdoor furniture in advance of the onset of
strong winds. Monitor the latest forecasts on NOAA Weather Radio
or your favorite media source.